Time;durP1;ratioP1;P1;durP2;ratioP2;P2;SDS_P1;SDS_P2;PMS_P1;PMS_P2;Temp;Humidity;BMP_temperature;BMP_pressure;BME280_temperature;BME280_humidity;BME280_pressure;Samples;Min_cycle;Max_cycle;Signal;HPM_P1;HPM_P2
2021/06/26 00:00:11;;;;;;;9.70;8.73;;;13.00;99.90;;;;;;5093843;28;20206;-63
2021/06/26 00:02:37;;;;;;;10.70;9.63;;;13.00;99.90;;;;;;5094160;28;20211;-63
2021/06/26 00:05:04;;;;;;;14.00;12.07;;;13.00;99.90;;;;;;5093809;28;20944;-63
2021/06/26 00:07:29;;;;;;;10.77;9.77;;;13.00;99.90;;;;;;5093494;28;20408;-63
2021/06/26 00:09:55;;;;;;;12.60;11.40;;;12.90;99.90;;;;;;5093894;28;20411;-63
2021/06/26 00:12:20;;;;;;;11.43;10.33;;;12.90;99.90;;;;;;5093797;28;20598;-63
2021/06/26 00:14:46;;;;;;;11.83;10.63;;;12.90;99.90;;;;;;5093617;28;20257;-62
2021/06/26 00:17:12;;;;;;;18.90;14.83;;;12.90;99.90;;;;;;5093415;28;20170;-63
2021/06/26 00:19:38;;;;;;;17.70;16.10;;;13.00;99.90;;;;;;5093676;28;20194;-63
2021/06/26 00:22:04;;;;;;;16.03;14.60;;;12.90;99.90;;;;;;5093504;28;20448;-63
2021/06/26 00:24:30;;;;;;;22.80;20.70;;;12.90;99.90;;;;;;5093502;28;20408;-63
2021/06/26 00:26:55;;;;;;;14.10;12.63;;;12.90;99.90;;;;;;5093199;28;20504;-63
2021/06/26 00:29:21;;;;;;;13.83;12.33;;;13.00;99.90;;;;;;5093357;28;20183;-63
2021/06/26 00:31:47;;;;;;;16.33;14.73;;;13.00;99.90;;;;;;5093361;28;20170;-63
2021/06/26 00:34:12;;;;;;;12.63;11.40;;;13.00;99.90;;;;;;5093289;28;20612;-63
2021/06/26 00:36:38;;;;;;;16.43;14.30;;;13.00;99.90;;;;;;5093074;28;20162;-63
2021/06/26 00:39:04;;;;;;;21.57;19.50;;;13.10;99.90;;;;;;5093200;28;20674;-63
2021/06/26 00:41:30;;;;;;;18.47;16.47;;;13.10;99.90;;;;;;5093222;28;20534;-63
2021/06/26 00:43:56;;;;;;;15.77;14.17;;;13.10;99.90;;;;;;5093020;28;20964;-62
2021/06/26 00:46:21;;;;;;;18.87;14.40;;;13.10;99.90;;;;;;5093090;28;20166;-62
2021/06/26 00:48:47;;;;;;;13.70;12.27;;;13.20;99.90;;;;;;5091975;28;20265;-63
2021/06/26 00:51:12;;;;;;;16.47;12.30;;;13.20;99.90;;;;;;5093141;28;20170;-63
2021/06/26 00:53:38;;;;;;;14.77;11.90;;;13.20;99.90;;;;;;5092982;28;20605;-63
2021/06/26 00:56:05;;;;;;;15.43;13.43;;;13.20;99.90;;;;;;5093029;28;20170;-63
2021/06/26 00:58:30;;;;;;;20.67;13.63;;;13.20;99.90;;;;;;5092457;28;20795;-63
2021/06/26 01:00:56;;;;;;;18.10;12.80;;;13.20;99.90;;;;;;5092659;28;20425;-63
2021/06/26 01:03:21;;;;;;;16.53;13.70;;;13.20;99.90;;;;;;5092766;28;20171;-63
2021/06/26 01:05:48;;;;;;;16.70;13.63;;;13.30;99.90;;;;;;5092906;28;20314;-63
2021/06/26 01:08:14;;;;;;;14.07;12.67;;;13.30;99.90;;;;;;5092413;28;20732;-63
2021/06/26 01:10:40;;;;;;;16.30;13.87;;;13.30;99.90;;;;;;5092629;28;20404;-63
2021/06/26 01:13:06;;;;;;;14.27;12.80;;;13.30;99.90;;;;;;5092526;28;20178;-63
2021/06/26 01:15:32;;;;;;;16.10;13.60;;;13.20;99.90;;;;;;5091234;28;20417;-63
2021/06/26 01:17:58;;;;;;;13.80;12.50;;;13.30;99.90;;;;;;5092209;28;20456;-63
2021/06/26 01:20:24;;;;;;;17.23;14.87;;;13.30;99.90;;;;;;5092515;28;20876;-63
2021/06/26 01:22:59;;;;;;;13.63;12.23;;;13.20;99.90;;;;;;5092377;28;20577;-63
2021/06/26 01:25:27;;;;;;;13.63;12.27;;;13.20;99.90;;;;;;5092180;28;20977;-63
2021/06/26 01:27:55;;;;;;;14.30;12.90;;;13.20;99.90;;;;;;5091425;28;20485;-63
2021/06/26 01:30:27;;;;;;;14.90;12.83;;;13.20;99.90;;;;;;5091568;28;20561;-63
2021/06/26 01:32:52;;;;;;;15.37;13.70;;;13.20;99.90;;;;;;5092380;28;20980;-63
2021/06/26 01:35:18;;;;;;;14.73;13.17;;;13.20;99.90;;;;;;5092696;28;20495;-63
2021/06/26 01:37:44;;;;;;;13.53;12.23;;;13.20;99.90;;;;;;5092005;28;20202;-63
2021/06/26 01:40:16;;;;;;;16.17;13.03;;;13.20;99.90;;;;;;5092146;28;20166;-63
2021/06/26 01:42:41;;;;;;;12.10;10.90;;;13.20;99.90;;;;;;5092138;28;20198;-63
2021/06/26 01:45:08;;;;;;;17.57;13.50;;;13.10;99.90;;;;;;5092128;28;20438;-62
2021/06/26 01:47:33;;;;;;;14.73;12.60;;;13.10;99.90;;;;;;5091810;28;20170;-63
2021/06/26 01:50:00;;;;;;;15.30;13.80;;;13.20;99.90;;;;;;5092168;28;20428;-63
2021/06/26 01:52:26;;;;;;;14.57;13.13;;;13.20;99.90;;;;;;5092506;28;20163;-62
2021/06/26 01:54:51;;;;;;;15.70;13.80;;;13.30;99.90;;;;;;5091931;28;20465;-62
2021/06/26 01:57:17;;;;;;;16.50;14.23;;;13.20;99.90;;;;;;5091609;28;20171;-63
2021/06/26 01:59:42;;;;;;;15.97;13.07;;;13.20;99.90;;;;;;5091774;28;20200;-63
2021/06/26 02:02:08;;;;;;;14.63;13.10;;;13.20;99.90;;;;;;5091819;28;20674;-63
2021/06/26 02:04:34;;;;;;;16.60;13.10;;;13.10;99.90;;;;;;5091907;28;20159;-61
2021/06/26 02:06:59;;;;;;;15.13;12.80;;;13.20;99.90;;;;;;5091709;28;20533;-63
2021/06/26 02:09:26;;;;;;;15.90;13.37;;;13.20;99.90;;;;;;5091793;28;20186;-63
2021/06/26 02:11:52;;;;;;;17.60;14.07;;;13.30;99.90;;;;;;5091897;28;20162;-63
2021/06/26 02:14:18;;;;;;;15.40;13.47;;;13.30;99.90;;;;;;5091757;28;20437;-63
2021/06/26 02:16:43;;;;;;;14.97;13.37;;;13.30;99.90;;;;;;5091570;28;20452;-63
2021/06/26 02:19:09;;;;;;;14.73;13.17;;;13.30;99.90;;;;;;5091895;28;20279;-63
2021/06/26 02:21:35;;;;;;;16.70;14.90;;;13.30;99.90;;;;;;5091757;28;20190;-63
2021/06/26 02:24:01;;;;;;;16.70;13.07;;;13.30;99.90;;;;;;5091680;28;20166;-63
2021/06/26 02:26:26;;;;;;;18.33;14.83;;;13.30;99.90;;;;;;5092066;28;20535;-62
2021/06/26 02:28:52;;;;;;;15.73;13.60;;;13.30;99.90;;;;;;5091582;28;20523;-62
2021/06/26 02:31:18;;;;;;;15.43;13.10;;;13.30;99.90;;;;;;5091741;28;20167;-62
2021/06/26 02:33:44;;;;;;;17.43;13.60;;;13.30;99.90;;;;;;5091601;28;20258;-62
2021/06/26 02:36:09;;;;;;;15.73;13.60;;;13.20;99.90;;;;;;5091631;28;20249;-62
2021/06/26 02:38:35;;;;;;;16.30;12.20;;;13.20;99.90;;;;;;5091209;28;20186;-62
2021/06/26 02:41:00;;;;;;;14.73;13.33;;;13.20;99.90;;;;;;5091601;28;20166;-63
2021/06/26 02:43:26;;;;;;;15.47;13.87;;;13.20;99.90;;;;;;5091516;28;20158;-63
2021/06/26 02:45:52;;;;;;;16.63;14.23;;;13.20;99.90;;;;;;5091652;28;20178;-62
2021/06/26 02:48:17;;;;;;;17.33;13.70;;;13.20;99.90;;;;;;5091214;28;20185;-62
2021/06/26 02:50:44;;;;;;;13.10;11.70;;;13.10;99.90;;;;;;5091547;28;20174;-62
2021/06/26 02:53:09;;;;;;;16.53;14.63;;;13.20;99.90;;;;;;5091383;28;20166;-62
2021/06/26 02:55:35;;;;;;;17.70;15.13;;;13.10;99.90;;;;;;5091456;28;20815;-62
2021/06/26 02:58:01;;;;;;;15.10;13.57;;;13.10;99.90;;;;;;5091059;28;20191;-62
2021/06/26 03:00:26;;;;;;;15.80;13.97;;;13.00;99.90;;;;;;5091465;28;20424;-62
2021/06/26 03:02:52;;;;;;;15.53;13.70;;;13.00;99.90;;;;;;5091283;28;20198;-62
2021/06/26 03:05:18;;;;;;;17.70;13.50;;;13.10;99.90;;;;;;5091349;28;20173;-62
2021/06/26 03:07:51;;;;;;;15.33;13.93;;;13.10;99.90;;;;;;5090865;28;20194;-62
2021/06/26 03:10:17;;;;;;;19.47;16.60;;;13.20;99.90;;;;;;5091373;28;20431;-62
2021/06/26 03:12:43;;;;;;;18.07;14.17;;;13.20;99.90;;;;;;5093920;28;21030;-62
2021/06/26 03:15:09;;;;;;;16.80;15.20;;;13.20;99.90;;;;;;5094920;28;20429;-62
2021/06/26 03:17:35;;;;;;;16.37;14.57;;;13.30;99.90;;;;;;5094554;28;20260;-62
2021/06/26 03:20:01;;;;;;;16.87;15.17;;;13.20;99.90;;;;;;5094826;28;20413;-62
2021/06/26 03:22:26;;;;;;;17.40;14.60;;;13.20;99.90;;;;;;5094671;28;20281;-63
2021/06/26 03:24:52;;;;;;;18.47;14.47;;;13.20;99.90;;;;;;5094784;28;20163;-63
2021/06/26 03:27:17;;;;;;;17.50;15.20;;;13.30;99.90;;;;;;5094321;28;20546;-62
2021/06/26 03:29:43;;;;;;;25.50;16.40;;;13.20;99.90;;;;;;5094680;28;20243;-62
2021/06/26 03:32:09;;;;;;;15.47;13.47;;;13.20;99.90;;;;;;5094659;28;20162;-62
2021/06/26 03:34:34;;;;;;;18.47;14.47;;;13.20;99.90;;;;;;5094476;28;20174;-62
2021/06/26 03:37:00;;;;;;;22.30;15.47;;;13.10;99.90;;;;;;5094278;28;20503;-62
2021/06/26 03:39:26;;;;;;;18.60;15.23;;;13.10;99.90;;;;;;5094507;28;20213;-63
2021/06/26 03:41:51;;;;;;;25.27;14.83;;;13.10;99.90;;;;;;5094360;28;20193;-62
2021/06/26 03:44:17;;;;;;;16.80;13.40;;;13.10;99.90;;;;;;5094480;28;20170;-62
2021/06/26 03:46:42;;;;;;;19.60;15.63;;;13.20;99.90;;;;;;5094061;28;20167;-62
2021/06/26 03:49:08;;;;;;;15.80;14.07;;;13.20;99.90;;;;;;5094245;28;20202;-63
2021/06/26 03:51:33;;;;;;;19.87;15.67;;;13.10;99.90;;;;;;5094248;28;20224;-62
2021/06/26 03:53:59;;;;;;;17.60;15.73;;;13.20;99.90;;;;;;5094191;28;20166;-63
2021/06/26 03:56:25;;;;;;;21.67;17.00;;;13.20;99.90;;;;;;5094094;28;20634;-62
2021/06/26 03:58:50;;;;;;;20.00;14.63;;;13.20;99.90;;;;;;5093904;28;20191;-62
2021/06/26 04:01:16;;;;;;;17.93;14.63;;;13.30;99.90;;;;;;5094142;28;20284;-62
2021/06/26 04:03:46;;;;;;;21.23;15.67;;;13.30;99.90;;;;;;5093937;28;20222;-62
2021/06/26 04:06:12;;;;;;;22.23;16.10;;;13.30;99.90;;;;;;5093895;28;20822;-63
2021/06/26 04:08:37;;;;;;;18.77;13.97;;;13.20;99.90;;;;;;5093558;28;20417;-62
2021/06/26 04:11:03;;;;;;;19.83;15.97;;;13.20;99.90;;;;;;5093933;28;20642;-62
2021/06/26 04:13:28;;;;;;;16.97;14.30;;;13.20;99.90;;;;;;5093686;28;20175;-62
2021/06/26 04:15:54;;;;;;;15.13;13.47;;;13.30;99.90;;;;;;5093780;28;20634;-62
2021/06/26 04:18:19;;;;;;;18.13;15.20;;;13.30;99.90;;;;;;5093212;28;20198;-63
2021/06/26 04:20:45;;;;;;;20.47;16.30;;;13.30;99.90;;;;;;5093690;28;20206;-63
2021/06/26 04:23:10;;;;;;;17.07;14.40;;;13.30;99.90;;;;;;5093449;28;20198;-62
2021/06/26 04:25:36;;;;;;;16.20;13.40;;;13.20;99.90;;;;;;5093609;28;20175;-62
2021/06/26 04:28:10;;;;;;;17.30;15.10;;;13.20;99.90;;;;;;5093080;28;20187;-62
2021/06/26 04:30:36;;;;;;;17.03;15.37;;;13.30;99.90;;;;;;5093433;28;20190;-62
2021/06/26 04:33:03;;;;;;;16.07;14.30;;;13.30;99.90;;;;;;5093243;28;20420;-62
2021/06/26 04:35:29;;;;;;;19.77;14.80;;;13.20;99.90;;;;;;5093447;28;20485;-63
2021/06/26 04:37:54;;;;;;;16.83;15.03;;;13.30;99.90;;;;;;5092913;28;20472;-63
2021/06/26 04:40:20;;;;;;;17.30;15.13;;;13.30;99.90;;;;;;5093316;28;20408;-62
2021/06/26 04:42:46;;;;;;;21.40;14.80;;;13.40;99.90;;;;;;5093155;28;20202;-62
2021/06/26 04:45:12;;;;;;;17.33;15.47;;;13.40;99.90;;;;;;5093247;28;20158;-62
2021/06/26 04:47:42;;;;;;;19.60;15.57;;;13.40;99.90;;;;;;5092648;28;20479;-63
2021/06/26 04:50:10;;;;;;;18.00;14.53;;;13.50;99.90;;;;;;5093127;28;20393;-63
2021/06/26 04:52:36;;;;;;;18.47;15.00;;;13.60;99.90;;;;;;5093006;28;20436;-62
2021/06/26 04:55:03;;;;;;;20.30;15.20;;;13.70;99.90;;;;;;5092987;28;20404;-63
2021/06/26 04:57:29;;;;;;;22.20;15.80;;;13.80;99.90;;;;;;5092482;28;20931;-62
2021/06/26 04:59:55;;;;;;;21.77;15.90;;;13.80;99.90;;;;;;5091655;28;20418;-62
2021/06/26 05:02:20;;;;;;;17.93;15.87;;;13.90;99.90;;;;;;5092750;28;20238;-62
2021/06/26 05:04:46;;;;;;;20.87;16.37;;;14.00;99.90;;;;;;5092975;28;20166;-62
2021/06/26 05:07:12;;;;;;;19.57;16.83;;;14.10;99.90;;;;;;5092475;28;20162;-62
2021/06/26 05:09:37;;;;;;;22.33;16.90;;;14.10;99.90;;;;;;5092640;28;20198;-62
2021/06/26 05:12:03;;;;;;;22.60;16.67;;;14.10;99.90;;;;;;5092658;28;20179;-62
2021/06/26 05:14:29;;;;;;;20.13;16.50;;;14.30;99.90;;;;;;5092610;28;20162;-63
2021/06/26 05:16:54;;;;;;;17.17;14.67;;;14.30;99.90;;;;;;5092274;28;20508;-63
2021/06/26 05:19:20;;;;;;;19.00;16.47;;;14.40;99.90;;;;;;5092531;28;20194;-62
2021/06/26 05:21:46;;;;;;;16.27;13.43;;;14.50;99.90;;;;;;5092507;28;20280;-62
2021/06/26 05:24:11;;;;;;;17.30;15.53;;;14.50;99.90;;;;;;5092436;28;20540;-62
2021/06/26 05:26:37;;;;;;;20.50;16.33;;;14.60;99.90;;;;;;5092064;28;20289;-62
2021/06/26 05:29:02;;;;;;;19.03;15.67;;;14.80;99.90;;;;;;5092377;28;20190;-62
2021/06/26 05:31:28;;;;;;;18.13;14.23;;;14.90;99.90;;;;;;5092296;28;20167;-62
2021/06/26 05:33:53;;;;;;;16.23;14.53;;;14.90;99.90;;;;;;5091832;28;20209;-62
2021/06/26 05:36:19;;;;;;;16.20;13.23;;;15.00;99.90;;;;;;5092503;28;20253;-63
2021/06/26 05:38:45;;;;;;;19.40;14.70;;;15.10;99.90;;;;;;5091943;28;20218;-63
2021/06/26 05:41:10;;;;;;;18.77;13.20;;;15.20;99.90;;;;;;5092098;28;20517;-62
2021/06/26 05:43:36;;;;;;;15.17;13.13;;;15.30;99.90;;;;;;5092182;28;20170;-63
2021/06/26 05:46:02;;;;;;;16.73;15.13;;;15.40;99.90;;;;;;5092083;28;20182;-63
2021/06/26 05:48:28;;;;;;;17.93;11.73;;;15.40;99.90;;;;;;5091765;28;20182;-62
2021/06/26 05:50:53;;;;;;;13.47;11.30;;;15.60;99.90;;;;;;5092049;28;20407;-62
2021/06/26 05:53:19;;;;;;;17.83;13.50;;;15.60;99.90;;;;;;5091953;28;20166;-62
2021/06/26 05:55:59;;;;;;;15.60;11.73;;;15.70;99.90;;;;;;5092048;28;20624;-62
2021/06/26 05:58:30;;;;;;;13.93;11.63;;;15.80;99.90;;;;;;5091563;28;20190;-62
2021/06/26 06:00:56;;;;;;;14.87;11.60;;;15.80;99.90;;;;;;5091861;28;20424;-62
2021/06/26 06:03:22;;;;;;;12.10;10.80;;;16.00;99.90;;;;;;5091785;28;20502;-62
2021/06/26 06:05:50;;;;;;;13.20;11.90;;;16.00;99.90;;;;;;5091937;28;20436;-62
2021/06/26 06:08:16;;;;;;;17.53;11.30;;;16.00;99.90;;;;;;5091620;28;20596;-63
2021/06/26 06:10:42;;;;;;;12.70;11.50;;;16.00;99.90;;;;;;5091696;28;20466;-63
2021/06/26 06:13:21;;;;;;;12.67;9.90;;;16.10;99.90;;;;;;5092177;28;20693;-63
2021/06/26 06:15:48;;;;;;;14.70;11.23;;;16.20;99.90;;;;;;5092139;28;20509;-63
2021/06/26 06:18:17;;;;;;;12.07;10.83;;;16.20;99.90;;;;;;5091419;28;20428;-63
2021/06/26 06:20:43;;;;;;;10.83;9.70;;;16.30;99.90;;;;;;5091770;28;20427;-62
2021/06/26 06:23:09;;;;;;;9.20;8.10;;;16.40;99.90;;;;;;5091551;28;20460;-63
2021/06/26 06:25:35;;;;;;;11.43;10.27;;;16.50;99.90;;;;;;5092073;28;20419;-62
2021/06/26 06:28:02;;;;;;;10.67;9.27;;;16.50;99.90;;;;;;5090057;28;20474;-63
2021/06/26 06:30:32;;;;;;;7.77;7.07;;;16.60;99.90;;;;;;5091720;28;20404;-63
2021/06/26 06:32:59;;;;;;;9.00;8.20;;;16.60;99.90;;;;;;5091728;28;20405;-63
2021/06/26 06:35:25;;;;;;;9.80;8.90;;;16.80;99.90;;;;;;5091731;28;20495;-62
2021/06/26 06:37:51;;;;;;;9.30;8.40;;;16.80;99.70;;;;;;5091140;28;20499;-63
2021/06/26 06:40:17;;;;;;;10.00;9.10;;;16.90;99.80;;;;;;5091510;28;21022;-62
2021/06/26 06:42:43;;;;;;;8.93;8.13;;;17.00;99.20;;;;;;5091498;28;20249;-63
2021/06/26 06:45:09;;;;;;;9.20;8.33;;;17.00;99.10;;;;;;5091599;28;20397;-63
2021/06/26 06:47:35;;;;;;;9.70;8.50;;;17.00;98.60;;;;;;5093856;28;20567;-62
2021/06/26 06:50:02;;;;;;;8.20;7.50;;;17.10;98.90;;;;;;5095397;28;20503;-63
2021/06/26 06:52:28;;;;;;;8.40;7.60;;;17.20;98.30;;;;;;5095303;28;20485;-63
2021/06/26 06:54:53;;;;;;;7.53;6.73;;;17.30;97.30;;;;;;5095184;28;20451;-62
2021/06/26 06:57:22;;;;;;;8.97;7.53;;;17.50;96.70;;;;;;5094923;28;20163;-63
2021/06/26 06:59:48;;;;;;;7.40;6.73;;;17.50;96.30;;;;;;5095292;28;20181;-63
2021/06/26 07:02:14;;;;;;;8.17;7.37;;;17.50;95.80;;;;;;5095038;28;20463;-63
2021/06/26 07:04:40;;;;;;;8.93;7.60;;;17.60;96.20;;;;;;5095104;28;20243;-63
2021/06/26 07:07:05;;;;;;;9.80;7.37;;;17.60;95.80;;;;;;5094702;28;20406;-63
2021/06/26 07:09:31;;;;;;;8.50;7.70;;;17.80;96.00;;;;;;5095028;28;20505;-63
2021/06/26 07:11:58;;;;;;;8.00;7.20;;;17.80;96.10;;;;;;5095054;28;20159;-63
2021/06/26 07:14:23;;;;;;;8.07;7.33;;;17.90;96.10;;;;;;5094995;28;20403;-63
2021/06/26 07:16:49;;;;;;;8.33;7.53;;;17.90;96.10;;;;;;5094651;28;20471;-63
2021/06/26 07:19:15;;;;;;;8.73;7.90;;;18.00;95.90;;;;;;5094845;28;20190;-63
2021/06/26 07:21:40;;;;;;;8.03;7.33;;;18.10;95.30;;;;;;5094773;28;20233;-63
2021/06/26 07:24:06;;;;;;;8.20;7.50;;;18.20;95.90;;;;;;5094685;28;20201;-63
2021/06/26 07:26:32;;;;;;;7.97;7.07;;;18.30;95.60;;;;;;5094426;28;20158;-62
2021/06/26 07:28:57;;;;;;;8.33;6.67;;;18.40;95.00;;;;;;5094674;28;20907;-63
2021/06/26 07:31:23;;;;;;;8.77;7.53;;;18.50;94.40;;;;;;5094793;28;20198;-63
2021/06/26 07:33:48;;;;;;;7.70;6.40;;;18.60;94.70;;;;;;5094569;28;20173;-63
2021/06/26 07:36:14;;;;;;;8.07;7.37;;;18.70;94.20;;;;;;5094486;28;20732;-64
2021/06/26 07:38:40;;;;;;;7.83;6.67;;;18.80;93.60;;;;;;5094068;28;20191;-63
2021/06/26 07:41:05;;;;;;;7.40;6.77;;;18.90;93.80;;;;;;5094466;28;20240;-63
2021/06/26 07:43:34;;;;;;;8.23;7.53;;;19.00;94.50;;;;;;5094409;28;20162;-62
2021/06/26 07:46:01;;;;;;;8.33;7.50;;;19.20;92.90;;;;;;5094375;28;20155;-63
2021/06/26 07:48:26;;;;;;;7.33;6.73;;;19.40;93.60;;;;;;5094006;28;20462;-63
2021/06/26 07:50:52;;;;;;;7.77;6.80;;;19.60;94.00;;;;;;5094193;28;20483;-63
2021/06/26 07:53:18;;;;;;;7.37;6.77;;;19.70;93.70;;;;;;5094322;28;20194;-63
2021/06/26 07:55:50;;;;;;;8.07;7.27;;;19.70;91.80;;;;;;5094228;28;20182;-64
2021/06/26 07:58:17;;;;;;;6.70;6.20;;;19.80;92.60;;;;;;5093534;28;20469;-63
2021/06/26 08:00:42;;;;;;;7.00;6.40;;;19.80;91.50;;;;;;5093991;28;20432;-63
2021/06/26 08:03:08;;;;;;;6.90;6.30;;;19.80;92.00;;;;;;5093844;28;20524;-63
2021/06/26 08:05:34;;;;;;;6.53;6.03;;;19.70;92.40;;;;;;5094178;28;20162;-64
2021/06/26 08:08:00;;;;;;;7.53;6.93;;;19.90;92.80;;;;;;5093520;28;20261;-63
2021/06/26 08:10:25;;;;;;;7.27;6.67;;;20.00;91.70;;;;;;5093927;28;20973;-63
2021/06/26 08:12:51;;;;;;;7.23;6.60;;;20.10;91.50;;;;;;5093872;28;20709;-63
2021/06/26 08:15:17;;;;;;;5.80;5.10;;;20.30;90.80;;;;;;5093812;28;20173;-63
2021/06/26 08:17:43;;;;;;;6.93;6.33;;;20.40;91.00;;;;;;5093435;28;20187;-63
2021/06/26 08:20:09;;;;;;;7.80;7.20;;;20.50;90.90;;;;;;5093567;28;20414;-63
2021/06/26 08:22:34;;;;;;;7.70;7.00;;;20.50;90.90;;;;;;5093355;28;20255;-63
2021/06/26 08:25:00;;;;;;;8.73;7.93;;;20.40;91.40;;;;;;5092380;28;20413;-62
2021/06/26 08:27:26;;;;;;;7.77;6.00;;;20.30;92.00;;;;;;5092897;28;20266;-64
2021/06/26 08:29:51;;;;;;;6.80;6.20;;;20.50;91.90;;;;;;5093859;28;20411;-64
2021/06/26 08:32:17;;;;;;;6.50;6.00;;;20.60;91.00;;;;;;5073853;28;20308;-63
2021/06/26 08:34:42;;;;;;;6.50;6.00;;;20.60;90.10;;;;;;5073282;28;20183;-63
2021/06/26 08:37:08;;;;;;;6.17;5.77;;;20.70;91.00;;;;;;5072772;28;20175;-63
2021/06/26 08:39:33;;;;;;;6.70;6.20;;;20.60;89.70;;;;;;5073060;28;20197;-63
2021/06/26 08:42:00;;;;;;;6.10;5.70;;;20.60;90.50;;;;;;5072990;28;20614;-63
2021/06/26 08:44:25;;;;;;;6.97;6.37;;;20.80;90.00;;;;;;5072928;28;20175;-64
2021/06/26 08:46:51;;;;;;;6.70;6.20;;;21.00;88.20;;;;;;5072703;28;20815;-63
2021/06/26 08:49:18;;;;;;;6.50;5.90;;;21.20;90.80;;;;;;5072712;28;20187;-63
2021/06/26 08:51:43;;;;;;;6.47;5.97;;;21.20;90.10;;;;;;5072772;28;20265;-63
2021/06/26 08:54:15;;;;;;;5.90;5.50;;;21.10;90.80;;;;;;5072743;28;20484;-63
2021/06/26 08:56:42;;;;;;;5.70;5.20;;;21.10;90.30;;;;;;5072504;28;20175;-63
2021/06/26 08:59:08;;;;;;;7.27;6.67;;;21.00;87.70;;;;;;5072646;28;20425;-63
2021/06/26 09:01:44;;;;;;;7.70;7.10;;;21.00;90.60;;;;;;5072481;28;20465;-63
2021/06/26 09:04:16;;;;;;;5.80;5.40;;;21.20;88.50;;;;;;5072449;28;20792;-63
2021/06/26 09:07:00;;;;;;;5.60;5.10;;;21.40;90.10;;;;;;5072340;28;20474;-63
2021/06/26 09:09:29;;;;;;;6.10;5.60;;;21.50;89.00;;;;;;5071756;28;20429;-63
2021/06/26 09:12:12;;;;;;;6.87;6.37;;;21.60;89.10;;;;;;5072521;28;20402;-63
2021/06/26 09:14:43;;;;;;;6.30;5.73;;;21.50;86.20;;;;;;5072438;28;20405;-63
2021/06/26 09:17:09;;;;;;;5.37;4.97;;;21.60;90.00;;;;;;5072057;28;20406;-63
2021/06/26 09:19:37;;;;;;;6.33;5.83;;;21.50;85.40;;;;;;5072132;28;20424;-63
2021/06/26 09:22:09;;;;;;;5.73;5.33;;;21.50;86.80;;;;;;5072256;28;20263;-63
2021/06/26 09:24:45;;;;;;;5.97;5.47;;;21.70;89.20;;;;;;5072695;28;20405;-63
2021/06/26 09:27:12;;;;;;;6.00;5.60;;;21.70;85.90;;;;;;5071912;28;20905;-63
2021/06/26 09:29:54;;;;;;;6.40;5.90;;;21.90;87.40;;;;;;5072128;28;20422;-63
2021/06/26 09:32:28;;;;;;;6.87;6.37;;;22.20;87.10;;;;;;5072191;28;20525;-63
2021/06/26 09:34:55;;;;;;;7.33;6.73;;;22.60;87.40;;;;;;5072117;28;20884;-64
2021/06/26 09:37:24;;;;;;;5.73;5.30;;;22.90;84.80;;;;;;5071640;28;20488;-64
2021/06/26 09:39:53;;;;;;;5.43;5.03;;;23.40;85.90;;;;;;5072135;28;20439;-64
2021/06/26 09:42:47;;;;;;;5.60;5.20;;;23.90;84.50;;;;;;5071953;28;20457;-64
2021/06/26 09:45:14;;;;;;;5.90;5.27;;;24.20;84.10;;;;;;5067950;28;20430;-64
2021/06/26 09:47:44;;;;;;;4.67;4.37;;;24.50;79.80;;;;;;5071585;28;20457;-64
2021/06/26 09:50:16;;;;;;;6.37;5.80;;;24.70;81.10;;;;;;5071982;28;20398;-64
2021/06/26 09:52:46;;;;;;;6.40;5.90;;;25.10;79.00;;;;;;5071837;28;20800;-64
2021/06/26 09:55:18;;;;;;;5.23;4.90;;;25.00;75.00;;;;;;5071880;28;20405;-64
2021/06/26 09:57:44;;;;;;;4.93;4.60;;;24.70;78.80;;;;;;5071458;28;20425;-64
2021/06/26 10:00:10;;;;;;;4.63;4.23;;;24.50;79.50;;;;;;5071608;28;20494;-64
2021/06/26 10:02:36;;;;;;;4.20;4.00;;;24.20;76.50;;;;;;5071639;28;20449;-64
2021/06/26 10:05:03;;;;;;;4.20;3.90;;;23.80;74.90;;;;;;5071715;28;20754;-64
2021/06/26 10:07:30;;;;;;;3.83;3.63;;;23.40;75.00;;;;;;5071420;28;20195;-64
2021/06/26 10:09:56;;;;;;;3.97;3.77;;;23.30;76.30;;;;;;5071727;28;20425;-64
2021/06/26 10:12:23;;;;;;;4.70;3.77;;;23.20;78.00;;;;;;5071721;28;20452;-64
2021/06/26 10:14:49;;;;;;;4.70;4.40;;;23.40;76.70;;;;;;5071426;28;20401;-64
2021/06/26 10:17:19;;;;;;;5.00;4.50;;;24.00;78.70;;;;;;5071337;28;20427;-64
2021/06/26 10:19:45;;;;;;;4.50;4.07;;;24.80;80.20;;;;;;5071581;28;20187;-64
2021/06/26 10:22:11;;;;;;;3.93;3.73;;;25.30;78.10;;;;;;5075450;28;20449;-64
2021/06/26 10:24:40;;;;;;;4.37;4.07;;;25.30;75.00;;;;;;5075733;28;20975;-64
2021/06/26 10:27:15;;;;;;;5.03;4.40;;;25.30;77.60;;;;;;5075263;28;20167;-64
2021/06/26 10:29:40;;;;;;;4.97;4.47;;;25.30;75.10;;;;;;5075677;28;20413;-64
2021/06/26 10:32:14;;;;;;;4.60;4.30;;;25.00;77.40;;;;;;5075513;28;20462;-64
2021/06/26 10:34:45;;;;;;;4.20;3.90;;;24.70;76.20;;;;;;5075373;28;20160;-64
2021/06/26 10:37:29;;;;;;;4.47;3.90;;;24.80;79.30;;;;;;5075199;28;20875;-64
2021/06/26 10:40:06;;;;;;;4.10;3.73;;;24.90;78.30;;;;;;5075455;28;20389;-64
2021/06/26 10:42:35;;;;;;;4.40;4.10;;;24.90;75.50;;;;;;5075250;28;20463;-64
2021/06/26 10:45:02;;;;;;;4.10;3.80;;;24.70;79.40;;;;;;5075296;28;20420;-64
2021/06/26 10:47:36;;;;;;;4.30;4.00;;;24.70;79.60;;;;;;5074681;28;20416;-64
2021/06/26 10:50:13;;;;;;;5.70;4.50;;;24.60;82.50;;;;;;5075114;28;20410;-64
2021/06/26 10:52:58;;;;;;;4.17;3.97;;;24.40;81.80;;;;;;5073792;28;20413;-64
2021/06/26 10:55:31;;;;;;;5.53;5.17;;;24.40;80.80;;;;;;5073850;28;20412;-64
2021/06/26 10:57:58;;;;;;;5.03;4.60;;;24.80;80.80;;;;;;5074714;28;20940;-64
2021/06/26 11:00:33;;;;;;;5.03;4.73;;;25.70;80.50;;;;;;5074786;28;20893;-64
2021/06/26 11:02:59;;;;;;;4.60;4.30;;;26.50;78.10;;;;;;5074837;28;20819;-64
2021/06/26 11:05:33;;;;;;;4.53;4.20;;;26.90;77.50;;;;;;5074974;28;20394;-64
2021/06/26 11:07:59;;;;;;;5.27;4.90;;;26.90;75.70;;;;;;5074579;28;20412;-64
2021/06/26 11:10:25;;;;;;;4.43;4.03;;;26.70;75.60;;;;;;5074829;28;20402;-64
2021/06/26 11:12:51;;;;;;;5.67;4.77;;;26.50;72.80;;;;;;5074667;28;20254;-64
2021/06/26 11:15:31;;;;;;;4.70;4.40;;;26.40;69.00;;;;;;5074934;28;20409;-64
2021/06/26 11:17:57;;;;;;;4.60;4.30;;;26.80;69.60;;;;;;5074355;28;20417;-64
2021/06/26 11:20:23;;;;;;;5.07;4.77;;;27.40;67.60;;;;;;5074680;28;20802;-64
2021/06/26 11:22:58;;;;;;;6.83;4.33;;;27.60;68.20;;;;;;5074502;28;20886;-65
2021/06/26 11:25:32;;;;;;;4.30;4.00;;;27.70;70.00;;;;;;5074503;28;20496;-64
2021/06/26 11:28:12;;;;;;;4.23;4.00;;;27.80;68.00;;;;;;5074210;28;20419;-64
2021/06/26 11:30:42;;;;;;;4.53;4.23;;;27.60;66.80;;;;;;5074465;28;21202;-64
2021/06/26 11:33:08;;;;;;;5.10;4.70;;;27.30;63.30;;;;;;5073596;28;20470;-64
2021/06/26 11:35:36;;;;;;;4.63;4.27;;;27.00;65.60;;;;;;5073128;28;20457;-64
2021/06/26 11:38:03;;;;;;;4.40;4.10;;;26.70;68.00;;;;;;5073910;28;20770;-64
2021/06/26 11:40:30;;;;;;;4.77;4.37;;;26.30;71.10;;;;;;5074263;28;20765;-64
2021/06/26 11:42:59;;;;;;;5.00;4.50;;;25.80;67.10;;;;;;5074136;28;20453;-64
2021/06/26 11:45:40;;;;;;;4.73;4.50;;;25.50;69.20;;;;;;5074169;28;20402;-64
2021/06/26 11:48:19;;;;;;;5.37;4.97;;;25.30;74.00;;;;;;5073702;28;20420;-64
2021/06/26 11:51:04;;;;;;;5.40;5.00;;;25.20;73.30;;;;;;5074043;28;20939;-64
2021/06/26 11:53:30;;;;;;;4.80;4.40;;;25.40;76.00;;;;;;5074118;28;20401;-64
2021/06/26 11:55:59;;;;;;;5.13;4.47;;;25.80;73.10;;;;;;5074021;28;20823;-64
2021/06/26 11:58:38;;;;;;;4.97;4.67;;;26.10;77.00;;;;;;5073584;28;20191;-64
2021/06/26 12:01:08;;;;;;;5.00;4.60;;;26.00;75.20;;;;;;5073597;28;20439;-64
2021/06/26 12:03:35;;;;;;;4.67;4.27;;;25.70;78.20;;;;;;5073725;28;20506;-64
2021/06/26 12:06:05;;;;;;;5.03;4.63;;;25.60;78.10;;;;;;5073839;28;20416;-64
2021/06/26 12:08:40;;;;;;;4.40;4.20;;;25.50;76.20;;;;;;5073380;28;20430;-64
2021/06/26 12:11:05;;;;;;;5.90;5.50;;;25.50;77.50;;;;;;5073727;28;20420;-64
2021/06/26 12:13:31;;;;;;;5.23;4.90;;;25.30;76.50;;;;;;5073527;28;20479;-64
2021/06/26 12:15:57;;;;;;;5.53;5.13;;;25.30;79.00;;;;;;5073560;28;20193;-64
2021/06/26 12:18:23;;;;;;;5.17;4.67;;;25.40;77.00;;;;;;5073203;28;20627;-64
2021/06/26 12:20:48;;;;;;;4.50;4.20;;;25.30;76.30;;;;;;5073558;28;20172;-64
2021/06/26 12:23:14;;;;;;;4.23;3.93;;;25.30;76.20;;;;;;5073327;28;20202;-64
2021/06/26 12:25:42;;;;;;;5.20;4.90;;;25.30;75.00;;;;;;5073383;28;20163;-64
2021/06/26 12:28:09;;;;;;;4.97;4.67;;;25.30;74.90;;;;;;5072843;28;20270;-64
2021/06/26 12:30:39;;;;;;;5.43;5.03;;;25.40;74.40;;;;;;5073287;28;20905;-64
2021/06/26 12:33:07;;;;;;;4.80;4.57;;;25.50;72.00;;;;;;5073540;28;20765;-64
2021/06/26 12:35:33;;;;;;;5.33;4.90;;;25.50;75.70;;;;;;5073269;28;20917;-64